sensor_id;sensor_type;location;lat;lon;timestamp;pressure;altitude;pressure_sealevel;temperature;humidity
34031;BME280;20319;28.466;-16.274;2024-01-25T18:22:28;96203.41;;;15.85;75.11
34031;BME280;20319;28.466;-16.274;2024-01-25T18:24:55;96175.63;;;15.75;76.74
34031;BME280;20319;28.466;-16.274;2024-01-25T18:27:20;96104.44;;;15.31;78.05
34031;BME280;20319;28.466;-16.274;2024-01-25T18:29:46;96200.72;;;15.90;78.79
34031;BME280;20319;28.466;-16.274;2024-01-25T18:32:11;96092.59;;;15.22;79.69
34031;BME280;20319;28.466;-16.274;2024-01-25T18:34:37;96055.94;;;14.96;80.14
34031;BME280;20319;28.466;-16.274;2024-01-25T18:37:03;96173.47;;;15.67;80.63
34031;BME280;20319;28.466;-16.274;2024-01-25T18:39:28;96181.84;;;15.65;81.18
34031;BME280;20319;28.466;-16.274;2024-01-25T18:41:55;96211.81;;;15.79;81.51
34031;BME280;20319;28.466;-16.274;2024-01-25T18:44:23;96191.59;;;15.66;81.94
34031;BME280;20319;28.466;-16.274;2024-01-25T18:46:49;96181.06;;;15.55;82.59
34031;BME280;20319;28.466;-16.274;2024-01-25T18:49:16;96203.22;;;15.62;83.20
34031;BME280;20319;28.466;-16.274;2024-01-25T18:51:41;96168.38;;;15.35;83.51
34031;BME280;20319;28.466;-16.274;2024-01-25T18:54:08;96225.59;;;15.67;83.79
34031;BME280;20319;28.466;-16.274;2024-01-25T18:56:43;96200.81;;;15.45;83.86
34031;BME280;20319;28.466;-16.274;2024-01-25T18:59:09;96213.47;;;15.50;84.26
34031;BME280;20319;28.466;-16.274;2024-01-25T19:01:36;96218.09;;;15.44;84.64
34031;BME280;20319;28.466;-16.274;2024-01-25T19:04:02;96222.38;;;15.50;84.96
34031;BME280;20319;28.466;-16.274;2024-01-25T19:06:34;96210.78;;;15.35;85.44
34031;BME280;20319;28.466;-16.274;2024-01-25T19:09:01;96216.44;;;15.33;85.97
34031;BME280;20319;28.466;-16.274;2024-01-25T19:11:27;96238.03;;;15.38;86.07
34031;BME280;20319;28.466;-16.274;2024-01-25T19:13:52;96142.00;;;14.72;86.13
34031;BME280;20319;28.466;-16.274;2024-01-25T19:16:18;96231.53;;;15.19;86.46
34031;BME280;20319;28.466;-16.274;2024-01-25T19:18:44;96165.44;;;14.76;86.34
34031;BME280;20319;28.466;-16.274;2024-01-25T19:21:09;96252.34;;;15.24;86.12
34031;BME280;20319;28.466;-16.274;2024-01-25T19:23:35;96232.63;;;15.08;86.07
34031;BME280;20319;28.466;-16.274;2024-01-25T19:26:02;96249.09;;;15.17;86.21
34031;BME280;20319;28.466;-16.274;2024-01-25T19:28:27;96232.63;;;14.93;86.18
34031;BME280;20319;28.466;-16.274;2024-01-25T19:30:55;96160.59;;;14.58;86.25
34031;BME280;20319;28.466;-16.274;2024-01-25T19:33:21;96250.72;;;15.08;86.39
34031;BME280;20319;28.466;-16.274;2024-01-25T19:35:46;96156.00;;;14.49;86.48
34031;BME280;20319;28.466;-16.274;2024-01-25T19:38:17;96233.94;;;14.91;86.65
34031;BME280;20319;28.466;-16.274;2024-01-25T19:40:43;96224.78;;;14.81;86.86
34031;BME280;20319;28.466;-16.274;2024-01-25T19:43:11;96180.50;;;14.47;86.92
34031;BME280;20319;28.466;-16.274;2024-01-25T19:45:38;96243.38;;;14.83;87.20
34031;BME280;20319;28.466;-16.274;2024-01-25T19:48:04;96252.03;;;14.90;87.37
34031;BME280;20319;28.466;-16.274;2024-01-25T19:50:30;96275.22;;;14.91;87.62
34031;BME280;20319;28.466;-16.274;2024-01-25T19:52:55;96170.50;;;14.28;87.70
34031;BME280;20319;28.466;-16.274;2024-01-25T19:55:21;96247.44;;;14.75;87.95
34031;BME280;20319;28.466;-16.274;2024-01-25T19:57:47;96192.59;;;14.35;88.27
34031;BME280;20319;28.466;-16.274;2024-01-25T20:00:14;96250.09;;;14.70;88.61
34031;BME280;20319;28.466;-16.274;2024-01-25T20:02:40;96262.22;;;14.73;88.87
34031;BME280;20319;28.466;-16.274;2024-01-25T20:05:06;96205.56;;;14.43;89.03
34031;BME280;20319;28.466;-16.274;2024-01-25T20:07:32;96240.94;;;14.61;89.27
34031;BME280;20319;28.466;-16.274;2024-01-25T20:09:58;96267.91;;;14.76;89.63
34031;BME280;20319;28.466;-16.274;2024-01-25T20:12:24;96259.00;;;14.71;89.93
34031;BME280;20319;28.466;-16.274;2024-01-25T20:14:49;96154.25;;;14.03;90.03
34031;BME280;20319;28.466;-16.274;2024-01-25T20:17:16;96260.63;;;14.72;90.12
34031;BME280;20319;28.466;-16.274;2024-01-25T20:19:44;96277.88;;;14.81;90.30
34031;BME280;20319;28.466;-16.274;2024-01-25T20:22:10;96262.47;;;14.66;90.52
34031;BME280;20319;28.466;-16.274;2024-01-25T20:24:36;96185.50;;;14.19;90.72
34031;BME280;20319;28.466;-16.274;2024-01-25T20:27:01;96110.47;;;13.66;90.93
34031;BME280;20319;28.466;-16.274;2024-01-25T20:29:27;96202.56;;;14.29;91.38
34031;BME280;20319;28.466;-16.274;2024-01-25T20:31:52;96277.88;;;14.71;91.96
34031;BME280;20319;28.466;-16.274;2024-01-25T20:34:18;96203.38;;;14.25;92.03
34031;BME280;20319;28.466;-16.274;2024-01-25T20:36:46;96268.44;;;14.68;92.54
34031;BME280;20319;28.466;-16.274;2024-01-25T20:39:11;96189.81;;;14.15;92.72
34031;BME280;20319;28.466;-16.274;2024-01-25T20:41:37;96251.16;;;14.59;93.09
34031;BME280;20319;28.466;-16.274;2024-01-25T20:44:04;96168.78;;;14.07;93.36
34031;BME280;20319;28.466;-16.274;2024-01-25T20:46:29;96172.81;;;14.09;93.50
34031;BME280;20319;28.466;-16.274;2024-01-25T20:48:55;96298.69;;;14.80;94.14
34031;BME280;20319;28.466;-16.274;2024-01-25T20:51:21;96179.06;;;14.15;94.36
34031;BME280;20319;28.466;-16.274;2024-01-25T20:53:48;96293.84;;;14.93;94.61
34031;BME280;20319;28.466;-16.274;2024-01-25T20:56:15;96294.66;;;14.88;94.80
34031;BME280;20319;28.466;-16.274;2024-01-25T20:58:40;96189.31;;;14.23;94.93
34031;BME280;20319;28.466;-16.274;2024-01-25T21:01:06;96159.09;;;14.06;95.04
34031;BME280;20319;28.466;-16.274;2024-01-25T21:03:32;96252.50;;;14.62;95.38
34031;BME280;20319;28.466;-16.274;2024-01-25T21:05:58;96221.19;;;14.46;95.22
34031;BME280;20319;28.466;-16.274;2024-01-25T21:08:24;96308.13;;;15.03;95.54
34031;BME280;20319;28.466;-16.274;2024-01-25T21:10:50;96232.00;;;14.56;95.53
34031;BME280;20319;28.466;-16.274;2024-01-25T21:13:16;96304.09;;;14.96;95.71
34031;BME280;20319;28.466;-16.274;2024-01-25T21:15:42;96248.22;;;14.66;95.85
34031;BME280;20319;28.466;-16.274;2024-01-25T21:18:07;96254.16;;;14.73;96.04
34031;BME280;20319;28.466;-16.274;2024-01-25T21:20:33;96273.59;;;14.85;96.21
34031;BME280;20319;28.466;-16.274;2024-01-25T21:22:59;96245.53;;;14.71;96.39
34031;BME280;20319;28.466;-16.274;2024-01-25T21:25:25;96319.25;;;15.17;96.57
34031;BME280;20319;28.466;-16.274;2024-01-25T21:27:51;96312.50;;;15.19;96.74
34031;BME280;20319;28.466;-16.274;2024-01-25T21:30:17;96284.97;;;15.07;97.11
34031;BME280;20319;28.466;-16.274;2024-01-25T21:32:42;96237.97;;;14.73;97.22
34031;BME280;20319;28.466;-16.274;2024-01-25T21:35:08;96142.19;;;14.20;97.45
34031;BME280;20319;28.466;-16.274;2024-01-25T21:37:34;96186.69;;;14.43;97.82
34031;BME280;20319;28.466;-16.274;2024-01-25T21:40:00;96225.31;;;14.78;98.37
34031;BME280;20319;28.466;-16.274;2024-01-25T21:42:25;96318.47;;;15.36;98.53
34031;BME280;20319;28.466;-16.274;2024-01-25T21:44:52;96314.94;;;15.31;99.06
34031;BME280;20319;28.466;-16.274;2024-01-25T21:47:17;96302.25;;;15.26;99.12
34031;BME280;20319;28.466;-16.274;2024-01-25T21:49:43;96274.97;;;15.03;99.24
34031;BME280;20319;28.466;-16.274;2024-01-25T21:52:08;96238.00;;;14.83;99.36
34031;BME280;20319;28.466;-16.274;2024-01-25T21:54:34;96225.03;;;14.75;99.60
34031;BME280;20319;28.466;-16.274;2024-01-25T21:57:00;96306.03;;;15.25;99.92
34031;BME280;20319;28.466;-16.274;2024-01-25T21:59:25;96295.78;;;15.17;100.00
34031;BME280;20319;28.466;-16.274;2024-01-25T22:01:51;96304.94;;;15.21;100.00
34031;BME280;20319;28.466;-16.274;2024-01-25T22:04:17;96189.69;;;14.56;99.99
34031;BME280;20319;28.466;-16.274;2024-01-25T22:06:43;96272.56;;;15.01;100.00
34031;BME280;20319;28.466;-16.274;2024-01-25T22:09:09;96240.13;;;14.81;100.00
34031;BME280;20319;28.466;-16.274;2024-01-25T22:11:34;96235.28;;;14.78;100.00
34031;BME280;20319;28.466;-16.274;2024-01-25T22:14:00;96314.09;;;15.10;100.00
34031;BME280;20319;28.466;-16.274;2024-01-25T22:16:26;96218.53;;;14.61;99.74
34031;BME280;20319;28.466;-16.274;2024-01-25T22:18:51;96208.84;;;14.60;99.58
34031;BME280;20319;28.466;-16.274;2024-01-25T22:21:17;96311.13;;;15.12;99.30
34031;BME280;20319;28.466;-16.274;2024-01-25T22:23:43;96218.22;;;14.37;98.95
34031;BME280;20319;28.466;-16.274;2024-01-25T22:26:08;96202.06;;;14.37;98.18
